createdAt,value
2023-04-18T00:02:24.018Z,12.02
2023-04-18T00:05:27.946Z,12.04
2023-04-18T00:08:31.894Z,12.02
2023-04-18T00:11:35.645Z,12.00
2023-04-18T00:14:38.332Z,12.05
2023-04-18T00:17:41.196Z,12.03
2023-04-18T00:20:43.876Z,12.05
2023-04-18T00:23:46.680Z,12.03
2023-04-18T00:26:49.304Z,12.02
2023-04-18T00:29:53.201Z,11.95
2023-04-18T00:32:55.756Z,11.95
2023-04-18T00:36:01.273Z,11.92
2023-04-18T00:39:04.111Z,11.90
2023-04-18T00:42:07.347Z,11.88
2023-04-18T00:45:10.588Z,11.85
2023-04-18T00:48:14.262Z,11.85
2023-04-18T00:51:16.849Z,11.85
2023-04-18T00:54:20.260Z,11.82
2023-04-18T00:57:22.965Z,11.78
2023-04-18T01:00:26.142Z,11.75
2023-04-18T01:03:28.796Z,11.73
2023-04-18T01:06:32.188Z,11.70
2023-04-18T01:09:35.019Z,11.66
2023-04-18T01:12:38.435Z,11.66
2023-04-18T01:15:43.089Z,11.66
2023-04-18T01:18:46.424Z,11.65
2023-04-18T01:21:53.636Z,11.67
2023-04-18T01:24:57.262Z,11.65
2023-04-18T01:28:00.991Z,11.62
2023-04-18T01:31:04.591Z,11.56
2023-04-18T01:34:07.758Z,11.54
2023-04-18T01:37:10.633Z,11.49
2023-04-18T01:40:15.110Z,11.52
2023-04-18T01:43:19.739Z,11.52
2023-04-18T01:46:22.722Z,11.56
2023-04-18T01:49:25.633Z,11.58
2023-04-18T01:52:28.823Z,11.58
2023-04-18T01:55:31.699Z,11.60
2023-04-18T01:58:35.010Z,11.66
2023-04-18T02:01:37.861Z,11.70
2023-04-18T02:04:40.881Z,11.68
2023-04-18T02:07:45.740Z,11.70
2023-04-18T02:10:48.765Z,11.72
2023-04-18T02:13:52.148Z,11.72
2023-04-18T02:16:56.080Z,11.70
2023-04-18T02:20:01.181Z,11.74
2023-04-18T02:23:06.120Z,11.70
2023-04-18T02:26:08.560Z,11.70
2023-04-18T02:29:11.721Z,11.67
2023-04-18T02:32:14.489Z,11.66
2023-04-18T02:35:23.867Z,11.66
2023-04-18T02:38:27.979Z,11.66
2023-04-18T02:41:31.250Z,11.65
2023-04-18T02:44:33.914Z,11.57
2023-04-18T02:47:51.302Z,11.55
2023-04-18T02:51:05.982Z,11.53
2023-04-18T02:54:10.017Z,11.44
2023-04-18T02:57:14.693Z,11.36
2023-04-18T03:00:19.766Z,11.35
2023-04-18T03:03:26.774Z,11.33
2023-04-18T03:06:30.205Z,11.33
2023-04-18T03:09:40.148Z,11.28
2023-04-18T03:12:43.530Z,11.22
2023-04-18T03:15:46.609Z,11.25
2023-04-18T03:18:50.009Z,11.27
2023-04-18T03:21:53.571Z,11.29
2023-04-18T03:25:00.034Z,11.28
2023-04-18T03:28:08.837Z,11.30
2023-04-18T03:31:12.786Z,11.29
2023-04-18T03:34:17.031Z,11.30
2023-04-18T03:37:20.517Z,11.31
2023-04-18T03:40:25.354Z,11.29
2023-04-18T03:43:36.611Z,11.30
2023-04-18T03:46:40.024Z,11.29
2023-04-18T03:49:43.337Z,11.31
2023-04-18T03:52:47.995Z,11.26
2023-04-18T03:55:53.763Z,11.27
2023-04-18T03:58:59.091Z,11.28
2023-04-18T04:02:04.194Z,11.25
2023-04-18T04:05:12.044Z,11.23
2023-04-18T04:08:16.737Z,11.28
2023-04-18T04:11:21.130Z,11.29
2023-04-18T04:14:25.790Z,11.31
2023-04-18T04:17:29.161Z,11.28
2023-04-18T04:20:35.009Z,11.34
2023-04-18T04:23:42.775Z,11.30
2023-04-18T04:26:48.855Z,11.25
2023-04-18T04:29:54.721Z,11.26
2023-04-18T04:32:59.952Z,11.20
2023-04-18T04:36:03.508Z,11.23
2023-04-18T04:39:12.797Z,11.20
2023-04-18T04:42:25.309Z,11.23
2023-04-18T04:45:35.881Z,11.23
2023-04-18T04:48:46.017Z,11.25
2023-04-18T04:51:51.374Z,11.26
2023-04-18T04:54:56.404Z,11.25
2023-04-18T04:58:02.393Z,11.26
2023-04-18T05:01:13.724Z,11.28
2023-04-18T05:04:19.695Z,11.27
2023-04-18T05:07:25.317Z,11.29
2023-04-18T05:10:37.283Z,11.32
2023-04-18T05:13:49.146Z,11.33
2023-04-18T05:16:52.765Z,11.30
2023-04-18T05:19:55.842Z,11.33
2023-04-18T05:23:02.257Z,11.26
2023-04-18T05:26:07.194Z,11.28
2023-04-18T05:29:12.005Z,11.27
2023-04-18T05:32:20.816Z,11.31
2023-04-18T05:35:24.222Z,11.29
2023-04-18T05:38:27.930Z,11.27
2023-04-18T05:41:31.096Z,11.21
2023-04-18T05:44:34.361Z,11.22
2023-04-18T05:47:37.553Z,11.25
2023-04-18T05:50:42.176Z,11.20
2023-04-18T05:53:48.997Z,11.21
2023-04-18T05:56:54.934Z,11.25
2023-04-18T06:00:00.706Z,11.37
2023-04-18T06:03:22.384Z,11.32
2023-04-18T06:06:28.144Z,11.28
2023-04-18T06:09:32.147Z,11.41
2023-04-18T06:12:36.507Z,11.52
2023-04-18T06:15:39.891Z,11.59
2023-04-18T06:18:47.317Z,11.66
2023-04-18T06:21:55.691Z,11.75
2023-04-18T06:24:59.788Z,11.83
2023-04-18T06:28:04.667Z,11.96
2023-04-18T06:31:09.776Z,12.14
2023-04-18T06:34:14.208Z,12.28
2023-04-18T06:37:19.163Z,12.41
2023-04-18T06:40:30.661Z,12.50
2023-04-18T06:43:39.989Z,12.69
2023-04-18T06:46:45.868Z,12.77
2023-04-18T06:49:49.096Z,12.99
2023-04-18T06:52:52.257Z,14.43
2023-04-18T06:55:55.657Z,14.23
2023-04-18T06:58:58.516Z,14.46
2023-04-18T07:02:03.833Z,14.05
2023-04-18T07:05:10.960Z,13.73
2023-04-18T07:08:14.205Z,13.67
2023-04-18T07:11:19.708Z,13.95
2023-04-18T07:14:25.488Z,13.94
2023-04-18T07:17:29.260Z,14.16
2023-04-18T07:20:32.782Z,14.63
2023-04-18T07:23:36.947Z,15.74
2023-04-18T07:26:41.005Z,15.91
2023-04-18T07:29:43.738Z,15.36
2023-04-18T07:32:50.401Z,14.98
2023-04-18T07:35:56.061Z,14.64
2023-04-18T07:38:59.461Z,14.75
2023-04-18T07:42:06.933Z,15.23
2023-04-18T07:45:13.728Z,15.60
2023-04-18T07:48:28.268Z,15.62
2023-04-18T07:51:31.919Z,15.94
2023-04-18T07:54:36.863Z,15.41
2023-04-18T07:57:45.901Z,15.25
2023-04-18T08:00:50.798Z,15.16
2023-04-18T08:04:04.971Z,14.85
2023-04-18T08:07:09.247Z,14.79
2023-04-18T08:10:12.914Z,14.78
2023-04-18T08:13:16.820Z,14.85
2023-04-18T08:16:21.268Z,14.86
2023-04-18T08:19:27.486Z,15.07
2023-04-18T08:22:57.449Z,15.06
2023-04-18T08:26:07.735Z,15.15
2023-04-18T08:29:13.878Z,15.23
2023-04-18T08:32:16.962Z,15.25
2023-04-18T08:35:21.747Z,15.06
2023-04-18T08:38:25.363Z,15.01
2023-04-18T08:41:40.133Z,15.06
2023-04-18T08:44:45.341Z,15.16
2023-04-18T08:47:49.992Z,15.47
2023-04-18T08:50:57.589Z,15.89
2023-04-18T08:54:04.652Z,15.98
2023-04-18T08:57:13.770Z,16.39
2023-04-18T09:00:19.021Z,16.89
2023-04-18T09:03:44.214Z,17.82
2023-04-18T09:06:54.722Z,18.00
2023-04-18T09:09:58.350Z,17.40
2023-04-18T09:13:04.504Z,17.41
2023-04-18T09:16:08.730Z,17.26
2023-04-18T09:19:21.800Z,16.78
2023-04-18T09:22:24.748Z,16.80
2023-04-18T09:25:45.317Z,16.92
2023-04-18T09:28:53.971Z,17.00
2023-04-18T09:32:01.839Z,17.37
2023-04-18T09:35:06.469Z,17.81
2023-04-18T09:38:11.741Z,17.54
2023-04-18T09:41:19.137Z,17.73
2023-04-18T09:44:25.804Z,17.67
2023-04-18T09:47:32.673Z,18.13
2023-04-18T09:50:41.934Z,17.92
2023-04-18T09:53:50.310Z,17.71
2023-04-18T09:56:56.490Z,17.98
2023-04-18T10:00:17.130Z,18.35
2023-04-18T10:03:24.853Z,18.34
2023-04-18T10:06:28.919Z,18.54
2023-04-18T10:09:46.728Z,19.23
2023-04-18T10:12:52.237Z,18.94
2023-04-18T10:15:56.685Z,18.63
2023-04-18T10:19:25.426Z,19.06
2023-04-18T10:22:30.959Z,18.62
2023-04-18T10:25:39.973Z,18.67
2023-04-18T10:28:55.190Z,18.31
2023-04-18T10:32:06.311Z,18.22
2023-04-18T10:35:11.009Z,18.45
2023-04-18T10:38:23.525Z,18.26
2023-04-18T10:41:33.302Z,19.32
2023-04-18T10:44:38.072Z,19.54
2023-04-18T10:47:43.033Z,19.21
2023-04-18T10:51:15.847Z,18.54
2023-04-18T10:54:43.254Z,18.44
2023-04-18T10:57:59.968Z,17.92
2023-04-18T11:01:06.234Z,18.22
2023-04-18T11:04:16.160Z,18.81
2023-04-18T11:07:36.209Z,18.57
2023-04-18T11:10:41.008Z,18.08
2023-04-18T11:13:57.584Z,18.17
2023-04-18T11:17:25.530Z,17.92
2023-04-18T11:20:30.144Z,17.94
2023-04-18T11:23:33.117Z,17.97
2023-04-18T11:26:45.971Z,18.03
2023-04-18T11:29:54.078Z,18.02
2023-04-18T11:32:59.050Z,18.32
2023-04-18T11:36:03.497Z,18.33
2023-04-18T11:39:12.733Z,18.34
2023-04-18T11:42:28.758Z,18.20
2023-04-18T11:45:32.000Z,18.30
2023-04-18T11:48:48.040Z,18.38
2023-04-18T11:51:54.742Z,18.73
2023-04-18T11:55:18.640Z,18.67
2023-04-18T11:58:32.756Z,19.02
2023-04-18T12:01:41.801Z,18.72
2023-04-18T12:04:58.541Z,18.80
2023-04-18T12:08:21.498Z,18.49
2023-04-18T12:11:26.977Z,18.52
2023-04-18T12:14:44.655Z,18.42
2023-04-18T12:17:54.829Z,19.22
2023-04-18T12:21:04.980Z,19.49
2023-04-18T12:24:18.464Z,19.56
2023-04-18T12:27:48.040Z,19.19
2023-04-18T12:30:59.690Z,18.56
2023-04-18T12:34:06.928Z,18.73
2023-04-18T12:37:10.055Z,18.54
2023-04-18T12:40:18.976Z,18.54
2023-04-18T12:43:25.742Z,18.96
2023-04-18T12:46:35.898Z,19.83
2023-04-18T12:49:48.671Z,19.45
2023-04-18T12:52:54.383Z,19.30
2023-04-18T12:56:02.563Z,18.95
2023-04-18T12:59:12.938Z,18.51
2023-04-18T13:02:25.801Z,18.55
2023-04-18T13:05:33.560Z,18.70
2023-04-18T13:08:50.649Z,18.79
2023-04-18T13:11:55.498Z,18.82
2023-04-18T13:14:58.588Z,18.74
2023-04-18T13:18:07.991Z,18.75
2023-04-18T13:21:12.371Z,18.75
2023-04-18T13:24:19.945Z,18.55
2023-04-18T13:27:24.986Z,18.75
2023-04-18T13:30:30.440Z,18.49
2023-04-18T13:33:34.792Z,18.60
2023-04-18T13:36:40.646Z,18.54
2023-04-18T13:39:49.009Z,18.38
2023-04-18T13:42:52.770Z,18.67
2023-04-18T13:45:55.811Z,18.80
2023-04-18T13:49:01.164Z,18.89
2023-04-18T13:52:08.277Z,18.35
2023-04-18T13:55:13.705Z,17.79
2023-04-18T13:58:20.025Z,17.37
2023-04-18T14:01:23.633Z,17.30
2023-04-18T14:04:27.643Z,17.70
2023-04-18T14:07:31.764Z,17.89
2023-04-18T14:10:40.796Z,17.97
2023-04-18T14:13:45.789Z,17.89
2023-04-18T14:16:50.911Z,17.98
2023-04-18T14:20:05.120Z,17.88
2023-04-18T14:23:09.017Z,17.73
2023-04-18T14:26:14.656Z,17.82
2023-04-18T14:29:26.965Z,17.90
2023-04-18T14:32:35.486Z,17.93
2023-04-18T14:35:52.956Z,17.86
2023-04-18T14:38:56.567Z,17.84
2023-04-18T14:42:08.615Z,17.85
2023-04-18T14:45:27.751Z,17.70
2023-04-18T14:48:32.191Z,17.85
2023-04-18T14:51:40.709Z,17.77
2023-04-18T14:54:53.819Z,17.83
2023-04-18T14:58:04.463Z,17.89
2023-04-18T15:01:19.627Z,17.94
2023-04-18T15:04:23.191Z,17.83
2023-04-18T15:07:30.799Z,17.91
2023-04-18T15:10:47.624Z,17.90
2023-04-18T15:14:01.805Z,17.83
2023-04-18T15:17:09.767Z,17.82
2023-04-18T15:20:13.961Z,17.65
2023-04-18T15:23:27.927Z,17.70
2023-04-18T15:26:33.154Z,17.60
2023-04-18T15:29:36.896Z,17.60
2023-04-18T15:32:42.232Z,17.43
2023-04-18T15:35:52.672Z,17.36
2023-04-18T15:39:04.749Z,17.27
2023-04-18T15:42:14.289Z,17.27
2023-04-18T15:45:28.538Z,17.26
2023-04-18T15:48:34.485Z,17.17
2023-04-18T15:51:54.756Z,17.11
2023-04-18T15:54:58.700Z,17.08
2023-04-18T15:58:04.680Z,16.97
2023-04-18T16:01:17.786Z,16.88
2023-04-18T16:04:27.147Z,16.73
2023-04-18T16:07:30.765Z,16.62
2023-04-18T16:10:40.810Z,16.57
2023-04-18T16:13:45.429Z,16.53
2023-04-18T16:16:55.767Z,16.43
2023-04-18T16:20:12.765Z,16.33
2023-04-18T16:23:28.643Z,16.25
2023-04-18T16:26:44.839Z,16.24
2023-04-18T16:29:50.703Z,16.14
2023-04-18T16:32:54.485Z,16.11
2023-04-18T16:35:59.258Z,16.11
2023-04-18T16:39:16.795Z,16.04
2023-04-18T16:42:22.789Z,15.99
2023-04-18T16:45:26.690Z,15.95
2023-04-18T16:48:30.581Z,15.93
2023-04-18T16:51:37.411Z,15.93
2023-04-18T16:54:42.710Z,15.94
2023-04-18T16:57:53.701Z,15.97
2023-04-18T17:01:11.654Z,15.94
2023-04-18T17:04:25.008Z,15.95
2023-04-18T17:07:31.928Z,15.94
2023-04-18T17:10:46.067Z,15.90
2023-04-18T17:13:57.625Z,15.82
2023-04-18T17:17:07.693Z,15.81
2023-04-18T17:20:13.229Z,15.71
2023-04-18T17:23:25.848Z,15.73
2023-04-18T17:26:41.728Z,15.64
2023-04-18T17:29:52.619Z,15.50
2023-04-18T17:33:04.976Z,15.40
2023-04-18T17:36:14.864Z,15.31
2023-04-18T17:39:22.987Z,15.19
2023-04-18T17:42:31.990Z,15.09
2023-04-18T17:45:36.131Z,15.03
2023-04-18T17:48:49.679Z,14.89
2023-04-18T17:52:09.622Z,14.79
2023-04-18T17:55:14.324Z,14.62
2023-04-18T17:58:22.549Z,14.47
2023-04-18T18:01:34.827Z,14.34
2023-04-18T18:04:52.848Z,14.21
2023-04-18T18:07:58.830Z,14.07
2023-04-18T18:11:02.834Z,13.96
2023-04-18T18:14:06.839Z,13.90
2023-04-18T18:17:11.618Z,13.82
2023-04-18T18:20:15.964Z,13.77
2023-04-18T18:23:31.776Z,13.71
2023-04-18T18:27:00.927Z,13.66
2023-04-18T18:30:19.678Z,13.53
2023-04-18T18:33:39.776Z,13.43
2023-04-18T18:36:48.813Z,13.35
2023-04-18T18:40:01.722Z,13.27
2023-04-18T18:43:09.485Z,13.22
2023-04-18T18:46:23.349Z,13.21
2023-04-18T18:49:30.853Z,13.15
2023-04-18T18:52:39.747Z,13.09
2023-04-18T18:55:52.216Z,13.03
2023-04-18T18:59:01.828Z,12.96
2023-04-18T19:02:17.571Z,12.81
2023-04-18T19:05:24.184Z,12.74
2023-04-18T19:08:39.658Z,12.72
2023-04-18T19:11:44.617Z,12.74
2023-04-18T19:14:53.040Z,12.76
2023-04-18T19:18:10.975Z,12.74
2023-04-18T19:21:18.002Z,12.79
2023-04-18T19:24:21.462Z,13.21
2023-04-18T19:27:29.721Z,13.52
2023-04-18T19:30:42.886Z,13.68
2023-04-18T19:33:46.579Z,13.87
2023-04-18T19:37:07.664Z,13.84
2023-04-18T19:40:16.117Z,13.87
2023-04-18T19:43:29.670Z,13.79
2023-04-18T19:46:35.122Z,13.79
2023-04-18T19:49:58.389Z,13.81
2023-04-18T19:53:13.712Z,13.81
2023-04-18T19:56:30.772Z,13.78
2023-04-18T19:59:35.765Z,13.75
2023-04-18T20:02:41.895Z,13.73
2023-04-18T20:05:45.545Z,13.73
2023-04-18T20:08:54.722Z,13.70
2023-04-18T20:12:07.133Z,13.70
2023-04-18T20:15:12.027Z,13.68
2023-04-18T20:18:26.728Z,13.70
2023-04-18T20:21:40.690Z,13.67
2023-04-18T20:24:52.862Z,13.75
2023-04-18T20:27:59.252Z,13.72
2023-04-18T20:31:12.812Z,13.72
2023-04-18T20:34:17.472Z,13.71
2023-04-18T20:37:24.599Z,13.67
2023-04-18T20:40:29.413Z,13.67
2023-04-18T20:43:42.101Z,13.64
2023-04-18T20:46:48.348Z,13.61
2023-04-18T20:49:52.222Z,13.57
2023-04-18T20:52:57.853Z,13.55
2023-04-18T20:56:05.300Z,13.57
2023-04-18T20:59:10.339Z,13.60
2023-04-18T21:02:17.792Z,13.65
2023-04-18T21:05:23.456Z,13.64
2023-04-18T21:08:33.670Z,13.62
2023-04-18T21:11:36.264Z,13.67
2023-04-18T21:14:39.875Z,13.67
2023-04-18T21:17:43.011Z,13.63
2023-04-18T21:20:50.768Z,13.55
2023-04-18T21:23:53.699Z,13.48
2023-04-18T21:27:01.736Z,13.42
2023-04-18T21:30:07.414Z,13.38
2023-04-18T21:33:14.309Z,13.33
2023-04-18T21:36:19.018Z,13.26
2023-04-18T21:39:23.282Z,13.20
2023-04-18T21:42:28.771Z,13.11
2023-04-18T21:45:31.904Z,13.05
2023-04-18T21:48:35.227Z,12.99
2023-04-18T21:51:38.399Z,12.96
2023-04-18T21:54:41.921Z,12.91
2023-04-18T21:57:57.225Z,12.84
2023-04-18T22:01:10.468Z,12.77
2023-04-18T22:04:16.139Z,12.67
2023-04-18T22:07:20.132Z,12.65
2023-04-18T22:10:23.067Z,12.65
2023-04-18T22:13:34.704Z,12.67
2023-04-18T22:16:39.067Z,12.68
2023-04-18T22:19:44.809Z,12.68
2023-04-18T22:22:47.939Z,12.69
2023-04-18T22:25:54.944Z,12.69
2023-04-18T22:28:59.001Z,12.70
2023-04-18T22:32:03.004Z,12.70
2023-04-18T22:35:06.631Z,12.69
2023-04-18T22:38:10.522Z,12.67
2023-04-18T22:41:16.622Z,12.60
2023-04-18T22:44:19.536Z,12.59
2023-04-18T22:47:22.976Z,12.61
2023-04-18T22:50:26.284Z,12.61
2023-04-18T22:53:29.521Z,12.60
2023-04-18T22:56:31.995Z,12.58
2023-04-18T22:59:35.937Z,12.57
2023-04-18T23:02:39.219Z,12.55
2023-04-18T23:05:43.427Z,12.55
2023-04-18T23:08:46.012Z,12.55
2023-04-18T23:11:48.810Z,12.53
2023-04-18T23:14:51.457Z,12.51
2023-04-18T23:17:54.511Z,12.51
2023-04-18T23:20:57.234Z,12.50
2023-04-18T23:24:00.494Z,12.49
2023-04-18T23:27:03.643Z,12.50
2023-04-18T23:30:12.320Z,12.49
2023-04-18T23:33:15.328Z,12.47
2023-04-18T23:36:18.431Z,12.46
2023-04-18T23:39:21.906Z,12.44
2023-04-18T23:42:25.505Z,12.45
2023-04-18T23:45:31.761Z,12.44
2023-04-18T23:48:39.160Z,12.44
2023-04-18T23:51:41.787Z,12.45
2023-04-18T23:54:45.406Z,12.45
2023-04-18T23:57:49.215Z,12.45
